createdAt,value
2022-10-17T00:01:58.795Z,7.18
2022-10-17T00:04:49.736Z,7.30
2022-10-17T00:07:41.121Z,7.13
2022-10-17T00:10:31.037Z,7.05
2022-10-17T00:13:21.474Z,7.18
2022-10-17T00:16:11.278Z,6.88
2022-10-17T00:19:03.196Z,7.60
2022-10-17T00:21:53.596Z,6.28
2022-10-17T00:24:45.577Z,6.30
2022-10-17T00:27:42.834Z,6.80
2022-10-17T00:30:34.330Z,7.05
2022-10-17T00:33:25.517Z,6.45
2022-10-17T00:36:18.154Z,7.32
2022-10-17T00:41:57.475Z,7.00
2022-10-17T00:44:48.634Z,7.10
2022-10-17T00:50:30.483Z,6.38
2022-10-17T00:53:21.737Z,6.63
2022-10-17T00:56:11.784Z,6.88
2022-10-17T00:59:02.001Z,7.05
2022-10-17T01:02:16.100Z,6.68
2022-10-17T01:05:08.580Z,6.80
2022-10-17T01:07:59.162Z,6.90
2022-10-17T01:11:08.610Z,6.30
2022-10-17T01:14:25.012Z,7.22
2022-10-17T01:17:41.851Z,6.22
2022-10-17T01:21:02.084Z,6.85
2022-10-17T01:24:11.787Z,7.13
2022-10-17T01:27:05.637Z,6.95
2022-10-17T01:30:31.573Z,6.95
2022-10-17T01:33:50.527Z,6.78
2022-10-17T01:36:41.127Z,6.60
2022-10-17T01:39:52.000Z,6.38
2022-10-17T01:43:15.573Z,7.53
2022-10-17T01:46:32.113Z,6.10
2022-10-17T01:49:26.880Z,7.15
2022-10-17T01:52:25.635Z,6.43
2022-10-17T01:55:24.937Z,6.53
2022-10-17T01:58:29.896Z,6.32
2022-10-17T02:01:21.475Z,6.35
2022-10-17T02:04:14.957Z,6.85
2022-10-17T02:07:13.670Z,6.15
2022-10-17T02:10:12.770Z,6.22
2022-10-17T02:13:43.539Z,6.50
2022-10-17T02:16:39.072Z,6.13
2022-10-17T02:19:38.659Z,6.47
2022-10-17T02:22:51.683Z,5.93
2022-10-17T02:26:04.156Z,6.15
2022-10-17T02:29:24.687Z,6.80
2022-10-17T02:32:27.271Z,6.45
2022-10-17T02:35:21.713Z,5.80
2022-10-17T02:38:17.135Z,6.07
2022-10-17T02:41:11.017Z,5.93
2022-10-17T02:44:02.831Z,5.93
2022-10-17T02:47:09.730Z,6.47
2022-10-17T02:50:00.936Z,5.63
2022-10-17T02:52:58.432Z,5.90
2022-10-17T02:56:00.355Z,6.35
2022-10-17T02:58:57.056Z,5.53
2022-10-17T03:01:46.971Z,5.70
2022-10-17T03:04:37.374Z,5.97
2022-10-17T03:07:28.465Z,5.85
2022-10-17T03:10:20.214Z,6.15
2022-10-17T03:13:12.358Z,5.72
2022-10-17T03:16:04.190Z,5.95
2022-10-17T03:18:55.699Z,6.20
2022-10-17T03:21:45.451Z,6.03
2022-10-17T03:24:35.693Z,6.03
2022-10-17T03:27:26.110Z,5.20
2022-10-17T03:30:17.458Z,5.45
2022-10-17T03:33:07.742Z,5.78
2022-10-17T03:35:58.849Z,5.28
2022-10-17T03:38:50.039Z,5.70
2022-10-17T03:41:40.420Z,5.32
2022-10-17T03:44:31.213Z,5.43
2022-10-17T03:47:22.709Z,5.10
2022-10-17T03:50:13.706Z,5.70
2022-10-17T03:53:05.410Z,5.13
2022-10-17T03:55:55.875Z,5.70
2022-10-17T03:58:46.567Z,5.30
2022-10-17T04:01:39.687Z,5.65
2022-10-17T04:04:30.597Z,5.05
2022-10-17T04:07:22.876Z,5.22
2022-10-17T04:10:15.517Z,4.90
2022-10-17T04:13:06.057Z,5.22
2022-10-17T04:16:01.941Z,5.15
2022-10-17T04:18:58.056Z,5.63
2022-10-17T04:21:50.097Z,4.93
2022-10-17T04:24:41.893Z,5.20
2022-10-17T04:27:36.150Z,5.18
2022-10-17T04:30:27.783Z,5.32
2022-10-17T04:33:18.857Z,5.20
2022-10-17T04:36:20.438Z,5.20
2022-10-17T04:39:11.237Z,5.43
2022-10-17T04:42:02.857Z,4.95
2022-10-17T04:44:54.904Z,5.87
2022-10-17T04:47:49.044Z,5.18
2022-10-17T04:50:39.257Z,5.10
2022-10-17T04:54:04.458Z,5.78
2022-10-17T04:56:56.290Z,5.30
2022-10-17T04:59:47.854Z,4.78
2022-10-17T05:02:46.390Z,5.05
2022-10-17T05:05:43.359Z,5.10
2022-10-17T05:08:34.717Z,4.75
2022-10-17T05:11:30.890Z,5.38
2022-10-17T05:14:22.692Z,5.07
2022-10-17T05:17:14.052Z,4.93
2022-10-17T05:20:04.508Z,4.60
2022-10-17T05:22:57.256Z,5.55
2022-10-17T05:25:56.777Z,4.55
2022-10-17T05:28:47.744Z,5.13
2022-10-17T05:31:38.661Z,4.80
2022-10-17T05:34:30.849Z,5.43
2022-10-17T05:37:21.813Z,5.40
2022-10-17T05:40:15.808Z,5.07
2022-10-17T05:43:05.923Z,4.80
2022-10-17T05:45:56.927Z,5.18
2022-10-17T05:48:48.332Z,5.05
2022-10-17T05:51:43.508Z,4.82
2022-10-17T05:54:38.850Z,4.57
2022-10-17T05:57:29.789Z,4.47
2022-10-17T06:00:21.990Z,5.15
2022-10-17T06:03:19.550Z,4.72
2022-10-17T06:06:12.930Z,4.80
2022-10-17T06:09:07.069Z,5.40
2022-10-17T06:12:00.411Z,5.30
2022-10-17T06:14:51.810Z,5.00
2022-10-17T06:17:42.216Z,4.45
2022-10-17T06:20:33.053Z,4.47
2022-10-17T06:23:24.980Z,5.40
2022-10-17T06:26:23.655Z,4.63
2022-10-17T06:29:14.887Z,4.82
2022-10-17T06:32:14.102Z,5.13
2022-10-17T06:35:09.194Z,4.97
2022-10-17T06:37:59.816Z,4.78
2022-10-17T06:40:51.030Z,4.78
2022-10-17T06:43:47.732Z,4.85
2022-10-17T06:47:00.721Z,5.07
2022-10-17T06:49:52.583Z,4.83
2022-10-17T06:52:56.610Z,5.65
2022-10-17T06:56:09.424Z,4.80
2022-10-17T06:59:17.849Z,5.05
2022-10-17T07:02:40.483Z,4.80
2022-10-17T07:05:30.058Z,5.10
2022-10-17T07:08:19.575Z,5.07
2022-10-17T07:11:18.000Z,4.78
2022-10-17T07:14:07.570Z,5.03
2022-10-17T07:16:57.562Z,4.72
2022-10-17T07:19:49.184Z,4.80
2022-10-17T07:22:38.801Z,5.07
2022-10-17T07:25:29.588Z,4.50
2022-10-17T07:28:22.456Z,5.13
2022-10-17T07:31:19.592Z,5.28
2022-10-17T07:34:09.004Z,5.03
2022-10-17T07:36:58.627Z,5.40
2022-10-17T07:39:48.063Z,5.40
2022-10-17T07:45:29.584Z,4.50
2022-10-17T07:48:20.189Z,4.97
2022-10-17T07:51:11.532Z,5.00
2022-10-17T07:54:00.817Z,5.10
2022-10-17T07:56:51.664Z,4.78
2022-10-17T07:59:41.002Z,4.70
2022-10-17T08:02:30.626Z,5.10
2022-10-17T08:05:20.509Z,4.70
2022-10-17T08:08:09.837Z,5.18
2022-10-17T08:11:07.739Z,4.93
2022-10-17T08:13:57.414Z,5.05
2022-10-17T08:16:47.731Z,4.90
2022-10-17T08:19:41.287Z,4.80
2022-10-17T08:22:30.982Z,4.95
2022-10-17T08:25:20.964Z,4.75
2022-10-17T08:28:10.804Z,4.85
2022-10-17T08:31:12.543Z,4.72
2022-10-17T08:34:01.957Z,4.50
2022-10-17T08:36:51.583Z,4.88
2022-10-17T08:39:42.942Z,5.07
2022-10-17T08:42:47.582Z,4.80
2022-10-17T08:45:52.784Z,4.80
2022-10-17T08:48:46.713Z,5.07
2022-10-17T08:51:43.979Z,4.57
2022-10-17T08:54:43.829Z,4.80
2022-10-17T08:57:33.361Z,4.85
2022-10-17T09:00:24.143Z,5.13
2022-10-17T09:03:30.921Z,4.70
2022-10-17T09:06:26.391Z,4.90
2022-10-17T09:09:28.324Z,5.00
2022-10-17T09:12:32.820Z,5.47
2022-10-17T09:15:33.911Z,4.72
2022-10-17T09:18:35.235Z,4.55
2022-10-17T09:21:46.533Z,4.65
2022-10-17T09:24:51.191Z,4.60
2022-10-17T09:27:44.746Z,4.57
2022-10-17T09:30:49.395Z,4.50
2022-10-17T09:33:53.742Z,4.68
2022-10-17T09:36:45.095Z,4.82
2022-10-17T09:39:34.714Z,4.72
2022-10-17T09:42:28.436Z,5.00
2022-10-17T09:45:27.995Z,4.78
2022-10-17T09:48:31.119Z,4.47
2022-10-17T09:51:25.998Z,4.82
2022-10-17T09:54:28.043Z,4.32
2022-10-17T09:57:19.207Z,4.72
2022-10-17T10:00:09.471Z,4.80
2022-10-17T10:03:31.267Z,4.63
2022-10-17T10:06:22.784Z,4.80
2022-10-17T10:09:28.996Z,4.88
2022-10-17T10:12:40.062Z,4.80
2022-10-17T10:15:42.236Z,4.65
2022-10-17T10:18:36.940Z,4.97
2022-10-17T10:21:28.611Z,4.50
2022-10-17T10:24:18.152Z,4.88
2022-10-17T10:27:12.299Z,4.82
2022-10-17T10:30:03.515Z,5.00
2022-10-17T10:32:53.344Z,4.82
2022-10-17T10:35:42.689Z,5.28
2022-10-17T10:38:34.535Z,4.85
2022-10-17T10:41:24.084Z,4.80
2022-10-17T10:44:18.418Z,4.82
2022-10-17T10:47:23.175Z,5.00
2022-10-17T10:50:31.595Z,4.88
2022-10-17T10:53:59.039Z,5.00
2022-10-17T10:56:53.561Z,4.57
2022-10-17T11:00:06.372Z,4.47
2022-10-17T11:03:19.377Z,4.30
2022-10-17T11:06:30.125Z,5.00
2022-10-17T11:09:37.727Z,4.47
2022-10-17T11:12:49.977Z,4.50
2022-10-17T11:16:00.905Z,4.55
2022-10-17T11:19:17.659Z,4.40
2022-10-17T11:22:12.965Z,4.90
2022-10-17T11:25:06.504Z,4.50
2022-10-17T11:27:57.254Z,4.60
2022-10-17T11:30:57.650Z,4.90
2022-10-17T11:34:08.450Z,4.85
2022-10-17T11:37:07.723Z,4.85
2022-10-17T11:40:04.553Z,4.82
2022-10-17T11:43:12.328Z,4.88
2022-10-17T11:46:07.640Z,4.85
2022-10-17T11:49:22.397Z,5.20
2022-10-17T11:52:51.329Z,4.80
2022-10-17T11:55:42.625Z,4.75
2022-10-17T11:58:51.854Z,5.35
2022-10-17T12:01:50.416Z,5.07
2022-10-17T12:05:03.328Z,4.80
2022-10-17T12:08:27.990Z,8.02
2022-10-17T12:11:26.093Z,9.35
2022-10-17T12:14:41.482Z,10.55
2022-10-17T12:17:41.760Z,12.77
2022-10-17T12:20:39.019Z,10.70
2022-10-17T12:23:33.260Z,9.32
2022-10-17T12:26:32.215Z,8.48
2022-10-17T12:29:34.304Z,8.60
2022-10-17T12:32:30.297Z,8.65
2022-10-17T12:35:28.123Z,4.93
2022-10-17T12:38:20.140Z,4.80
2022-10-17T12:41:09.587Z,7.53
2022-10-17T12:43:59.063Z,7.00
2022-10-17T12:46:52.913Z,5.40
2022-10-17T12:49:49.685Z,5.07
2022-10-17T12:52:56.181Z,4.90
2022-10-17T12:55:45.437Z,4.47
2022-10-17T12:58:37.391Z,4.57
2022-10-17T13:01:33.075Z,5.28
2022-10-17T13:04:23.731Z,4.97
2022-10-17T13:07:23.673Z,5.05
2022-10-17T13:10:29.052Z,4.40
2022-10-17T13:13:50.610Z,5.03
2022-10-17T13:16:43.392Z,4.90
2022-10-17T13:19:44.196Z,4.18
2022-10-17T13:22:34.164Z,4.78
2022-10-17T13:25:24.177Z,4.78
2022-10-17T13:28:14.723Z,5.53
2022-10-17T13:31:04.054Z,4.95
2022-10-17T13:33:59.236Z,4.70
2022-10-17T13:36:50.421Z,4.93
2022-10-17T13:39:55.147Z,4.50
2022-10-17T13:42:46.871Z,4.85
2022-10-17T13:45:40.356Z,4.88
2022-10-17T13:48:31.668Z,4.20
2022-10-17T13:51:21.381Z,4.68
2022-10-17T13:54:21.054Z,5.07
2022-10-17T13:57:36.671Z,4.72
2022-10-17T14:00:26.436Z,4.95
2022-10-17T14:03:15.769Z,4.85
2022-10-17T14:06:12.917Z,5.07
2022-10-17T14:09:19.216Z,5.10
2022-10-17T14:12:13.815Z,4.75
2022-10-17T14:15:12.417Z,5.25
2022-10-17T14:18:08.369Z,5.18
2022-10-17T14:21:34.033Z,5.03
2022-10-17T14:24:24.924Z,4.93
2022-10-17T14:27:28.899Z,5.13
2022-10-17T14:30:51.617Z,4.88
2022-10-17T14:33:39.948Z,5.07
2022-10-17T14:36:38.818Z,5.00
2022-10-17T14:39:29.347Z,5.03
2022-10-17T14:42:23.496Z,4.88
2022-10-17T14:45:27.910Z,4.90
2022-10-17T14:48:20.920Z,5.40
2022-10-17T14:51:19.249Z,5.05
2022-10-17T14:54:33.776Z,4.72
2022-10-17T14:57:42.417Z,5.10
2022-10-17T15:00:31.704Z,4.88
2022-10-17T15:03:21.191Z,4.82
2022-10-17T15:06:24.801Z,4.68
2022-10-17T15:09:14.536Z,5.53
2022-10-17T15:12:05.482Z,4.80
2022-10-17T15:14:55.354Z,5.00
2022-10-17T15:21:04.505Z,4.50
2022-10-17T15:23:56.135Z,4.45
2022-10-17T15:26:45.528Z,5.50
2022-10-17T15:29:34.769Z,4.85
2022-10-17T15:32:24.063Z,5.10
2022-10-17T15:35:13.343Z,5.57
2022-10-17T15:38:02.679Z,4.97
2022-10-17T15:40:53.010Z,5.35
2022-10-17T15:43:42.222Z,5.22
2022-10-17T15:46:34.298Z,5.32
2022-10-17T15:49:23.654Z,6.07
2022-10-17T15:52:12.983Z,6.50
2022-10-17T15:55:05.247Z,6.28
2022-10-17T15:57:55.034Z,7.13
2022-10-17T16:00:44.998Z,6.85
2022-10-17T16:03:35.258Z,6.57
2022-10-17T16:06:25.743Z,6.25
2022-10-17T16:09:15.074Z,6.22
2022-10-17T16:12:06.719Z,6.47
2022-10-17T16:14:56.094Z,6.30
2022-10-17T16:17:45.773Z,6.10
2022-10-17T16:20:35.101Z,6.25
2022-10-17T16:23:24.377Z,6.38
2022-10-17T16:26:17.143Z,6.32
2022-10-17T16:29:06.526Z,5.90
2022-10-17T16:31:56.171Z,5.63
2022-10-17T16:34:45.796Z,6.15
2022-10-17T16:37:36.749Z,5.72
2022-10-17T16:40:26.422Z,5.80
2022-10-17T16:43:15.770Z,5.63
2022-10-17T16:46:08.199Z,5.85
2022-10-17T16:48:58.808Z,6.32
2022-10-17T16:51:48.058Z,5.28
2022-10-17T16:54:37.263Z,5.88
2022-10-17T16:57:27.070Z,5.85
2022-10-17T17:00:16.969Z,5.88
2022-10-17T17:03:06.306Z,5.60
2022-10-17T17:05:55.872Z,5.18
2022-10-17T17:08:45.256Z,5.38
2022-10-17T17:11:34.474Z,5.78
2022-10-17T17:14:23.959Z,5.30
2022-10-17T17:17:19.685Z,5.50
2022-10-17T17:20:20.030Z,5.95
2022-10-17T17:23:15.106Z,5.78
2022-10-17T17:26:14.894Z,5.45
2022-10-17T17:29:04.415Z,5.70
2022-10-17T17:31:53.854Z,5.68
2022-10-17T17:34:44.762Z,5.78
2022-10-17T17:37:34.209Z,5.75
2022-10-17T17:40:23.513Z,5.68
2022-10-17T17:43:13.039Z,5.50
2022-10-17T17:46:08.316Z,6.35
2022-10-17T17:48:58.213Z,5.55
2022-10-17T17:51:49.910Z,5.50
2022-10-17T17:54:40.956Z,5.95
2022-10-17T17:57:31.276Z,6.03
2022-10-17T18:00:20.578Z,5.72
2022-10-17T18:03:09.891Z,5.28
2022-10-17T18:05:59.216Z,5.82
2022-10-17T18:08:54.420Z,6.03
2022-10-17T18:11:43.704Z,5.63
2022-10-17T18:14:32.904Z,6.18
2022-10-17T18:17:22.363Z,6.32
2022-10-17T18:20:12.144Z,5.85
2022-10-17T18:23:04.079Z,5.65
2022-10-17T18:25:58.460Z,5.13
2022-10-17T18:28:48.035Z,5.88
2022-10-17T18:31:37.630Z,5.78
2022-10-17T18:34:28.306Z,5.45
2022-10-17T18:37:17.618Z,6.15
2022-10-17T18:40:07.708Z,6.25
2022-10-17T18:42:56.933Z,6.00
2022-10-17T18:45:46.263Z,5.70
2022-10-17T18:48:36.240Z,6.10
2022-10-17T18:51:27.135Z,5.97
2022-10-17T18:54:21.381Z,6.97
2022-10-17T18:57:11.082Z,5.95
2022-10-17T19:00:00.362Z,6.35
2022-10-17T19:02:49.623Z,6.00
2022-10-17T19:05:46.034Z,5.25
2022-10-17T19:08:36.614Z,6.43
2022-10-17T19:11:28.343Z,5.65
2022-10-17T19:14:18.191Z,5.93
2022-10-17T19:17:07.460Z,6.47
2022-10-17T19:19:56.949Z,6.60
2022-10-17T19:22:46.203Z,5.97
2022-10-17T19:25:35.743Z,6.20
2022-10-17T19:28:25.525Z,6.10
2022-10-17T19:31:17.011Z,6.20
2022-10-17T19:34:07.411Z,6.10
2022-10-17T19:36:56.924Z,6.40
2022-10-17T19:39:46.599Z,5.93
2022-10-17T19:42:36.196Z,5.90
2022-10-17T19:45:25.491Z,5.57
2022-10-17T19:48:14.752Z,5.57
2022-10-17T19:51:05.359Z,6.05
2022-10-17T19:53:56.516Z,5.97
2022-10-17T19:56:45.863Z,6.20
2022-10-17T19:59:35.201Z,6.03
2022-10-17T20:02:24.768Z,5.80
2022-10-17T20:05:18.659Z,6.38
2022-10-17T20:08:08.366Z,6.03
2022-10-17T20:10:57.759Z,6.25
2022-10-17T20:13:47.458Z,6.22
2022-10-17T20:16:38.774Z,5.70
2022-10-17T20:19:28.089Z,6.10
2022-10-17T20:22:17.395Z,6.15
2022-10-17T20:25:07.139Z,5.90
2022-10-17T20:27:56.623Z,6.22
2022-10-17T20:30:47.471Z,6.30
2022-10-17T20:33:37.065Z,6.25
2022-10-17T20:36:27.015Z,5.82
2022-10-17T20:39:18.795Z,6.38
2022-10-17T20:42:08.106Z,6.60
2022-10-17T20:44:57.466Z,6.53
2022-10-17T20:47:52.493Z,6.13
2022-10-17T20:50:45.376Z,5.22
2022-10-17T20:53:37.370Z,5.85
2022-10-17T20:56:29.179Z,6.28
2022-10-17T20:59:19.274Z,6.40
2022-10-17T21:02:08.826Z,6.53
2022-10-17T21:04:59.098Z,6.88
2022-10-17T21:07:50.901Z,6.28
2022-10-17T21:10:40.156Z,6.75
2022-10-17T21:13:29.398Z,6.22
2022-10-17T21:16:20.287Z,6.57
2022-10-17T21:19:11.174Z,6.13
2022-10-17T21:22:00.580Z,5.93
2022-10-17T21:24:50.005Z,6.63
2022-10-17T21:27:39.227Z,6.20
2022-10-17T21:30:28.469Z,7.07
2022-10-17T21:33:17.718Z,6.90
2022-10-17T21:36:07.850Z,6.60
2022-10-17T21:38:58.389Z,6.28
2022-10-17T21:41:47.718Z,6.20
2022-10-17T21:44:37.310Z,6.82
2022-10-17T21:47:27.753Z,6.40
2022-10-17T21:50:17.094Z,6.70
2022-10-17T21:53:06.516Z,6.93
2022-10-17T21:55:55.866Z,5.97
2022-10-17T21:58:45.945Z,6.70
2022-10-17T22:01:40.473Z,7.70
2022-10-17T22:04:30.036Z,7.05
2022-10-17T22:07:19.222Z,7.78
2022-10-17T22:10:08.701Z,6.18
2022-10-17T22:12:57.957Z,6.78
2022-10-17T22:15:47.187Z,7.15
2022-10-17T22:18:36.789Z,6.35
2022-10-17T22:21:26.601Z,7.13
2022-10-17T22:24:17.543Z,6.82
2022-10-17T22:27:07.362Z,6.70
2022-10-17T22:29:56.777Z,7.50
2022-10-17T22:32:46.730Z,7.30
2022-10-17T22:35:36.039Z,7.28
2022-10-17T22:38:25.498Z,7.22
2022-10-17T22:41:14.817Z,6.75
2022-10-17T22:44:04.534Z,7.13
2022-10-17T22:46:53.950Z,7.07
2022-10-17T22:49:43.602Z,6.88
2022-10-17T22:52:32.996Z,7.20
2022-10-17T22:55:22.666Z,6.57
2022-10-17T22:58:11.900Z,6.90
2022-10-17T23:01:01.734Z,6.53
2022-10-17T23:03:51.856Z,6.47
2022-10-17T23:06:41.508Z,6.90
2022-10-17T23:09:31.072Z,6.15
2022-10-17T23:12:21.063Z,6.55
2022-10-17T23:15:10.999Z,6.50
2022-10-17T23:18:01.165Z,6.53
2022-10-17T23:20:50.555Z,6.80
2022-10-17T23:23:39.874Z,6.03
2022-10-17T23:26:29.309Z,6.88
2022-10-17T23:29:18.780Z,6.75
2022-10-17T23:32:07.981Z,6.03
2022-10-17T23:34:57.216Z,6.47
2022-10-17T23:37:46.503Z,6.28
2022-10-17T23:40:36.557Z,6.20
2022-10-17T23:43:27.534Z,5.65
2022-10-17T23:46:16.924Z,6.15
2022-10-17T23:49:07.140Z,6.22
2022-10-17T23:51:56.438Z,6.35
2022-10-17T23:54:45.702Z,5.88
2022-10-17T23:57:35.194Z,6.93
